Park City, Utah
Current Conditions -  °F | °C
As of 12:55 PM on Thursday 30 Oct 2014 (Local Time) from K36U Reporting Station
Clear Clear  
Wind Chill: 55°   Ceiling: Unl
Heat Index: 55°   Visibility: 10mi
Dew Point: 27°   Wind: 0mph
Humidity: 33%   Direction: NA
Pressure: 30.3"   Gusts: NA
Location:  40.66°N, 111.49°W
Report Text: K36U 301855Z AUTO 00000KT 10SM CLR 13/M03 A3030 RMK AO2
Loading
Personal Weather Stations






























Interactive Weather Map
Tropical Storm Tracking
New forecast layout! Learn more

10-Day Weather Forecast

Advertisements
Track Severe Weather on mobile